sensor_id;sensor_type;location;lat;lon;timestamp;temperature;humidity
28010;DHT22;15334;49.494;8.410;2023-07-31T00:02:15;19.70;99.90
28010;DHT22;15334;49.494;8.410;2023-07-31T00:05:01;19.70;99.90
28010;DHT22;15334;49.494;8.410;2023-07-31T00:07:48;19.70;99.90
28010;DHT22;15334;49.494;8.410;2023-07-31T00:10:33;19.70;99.90
28010;DHT22;15334;49.494;8.410;2023-07-31T00:13:19;19.70;99.90
28010;DHT22;15334;49.494;8.410;2023-07-31T00:16:04;19.70;99.90
28010;DHT22;15334;49.494;8.410;2023-07-31T00:18:33;19.70;99.90
28010;DHT22;15334;49.494;8.410;2023-07-31T00:21:01;19.60;99.90
28010;DHT22;15334;49.494;8.410;2023-07-31T00:23:30;19.60;99.90
28010;DHT22;15334;49.494;8.410;2023-07-31T00:25:58;19.60;99.90
28010;DHT22;15334;49.494;8.410;2023-07-31T00:28:26;19.60;99.90
28010;DHT22;15334;49.494;8.410;2023-07-31T00:30:55;19.60;99.90
28010;DHT22;15334;49.494;8.410;2023-07-31T00:33:23;19.60;99.90
28010;DHT22;15334;49.494;8.410;2023-07-31T00:35:51;19.60;99.90
28010;DHT22;15334;49.494;8.410;2023-07-31T00:38:19;19.60;99.90
28010;DHT22;15334;49.494;8.410;2023-07-31T00:40:49;19.60;99.90
28010;DHT22;15334;49.494;8.410;2023-07-31T00:43:17;19.60;99.90
28010;DHT22;15334;49.494;8.410;2023-07-31T00:45:45;19.60;99.90
28010;DHT22;15334;49.494;8.410;2023-07-31T00:48:13;19.60;99.90
28010;DHT22;15334;49.494;8.410;2023-07-31T00:50:41;19.60;99.90
28010;DHT22;15334;49.494;8.410;2023-07-31T00:53:10;19.60;99.90
28010;DHT22;15334;49.494;8.410;2023-07-31T00:55:38;19.60;99.90
28010;DHT22;15334;49.494;8.410;2023-07-31T00:58:08;19.60;99.90
28010;DHT22;15334;49.494;8.410;2023-07-31T01:00:35;19.60;99.90
28010;DHT22;15334;49.494;8.410;2023-07-31T01:03:04;19.50;99.90
28010;DHT22;15334;49.494;8.410;2023-07-31T01:05:39;19.50;99.90
28010;DHT22;15334;49.494;8.410;2023-07-31T01:08:15;19.40;99.90
28010;DHT22;15334;49.494;8.410;2023-07-31T01:10:53;19.40;99.90
28010;DHT22;15334;49.494;8.410;2023-07-31T01:13:24;19.40;99.90
28010;DHT22;15334;49.494;8.410;2023-07-31T01:15:52;19.40;99.90
28010;DHT22;15334;49.494;8.410;2023-07-31T01:18:20;19.40;99.90
28010;DHT22;15334;49.494;8.410;2023-07-31T01:20:55;19.40;99.90
28010;DHT22;15334;49.494;8.410;2023-07-31T01:23:42;19.30;99.90
28010;DHT22;15334;49.494;8.410;2023-07-31T01:26:22;19.30;99.90
28010;DHT22;15334;49.494;8.410;2023-07-31T01:28:56;19.30;99.90
28010;DHT22;15334;49.494;8.410;2023-07-31T01:31:30;19.30;99.90
28010;DHT22;15334;49.494;8.410;2023-07-31T01:34:00;19.20;99.90
28010;DHT22;15334;49.494;8.410;2023-07-31T01:36:30;19.30;99.90
28010;DHT22;15334;49.494;8.410;2023-07-31T01:38:59;19.30;99.90
28010;DHT22;15334;49.494;8.410;2023-07-31T01:41:28;19.30;99.90
28010;DHT22;15334;49.494;8.410;2023-07-31T01:43:56;19.30;99.90
28010;DHT22;15334;49.494;8.410;2023-07-31T01:46:24;19.20;99.90
28010;DHT22;15334;49.494;8.410;2023-07-31T01:48:52;19.20;99.90
28010;DHT22;15334;49.494;8.410;2023-07-31T01:51:20;19.20;99.90
28010;DHT22;15334;49.494;8.410;2023-07-31T01:53:48;19.20;99.90
28010;DHT22;15334;49.494;8.410;2023-07-31T01:56:16;19.20;99.90
28010;DHT22;15334;49.494;8.410;2023-07-31T01:58:46;19.10;99.90
28010;DHT22;15334;49.494;8.410;2023-07-31T02:01:14;19.20;99.90
28010;DHT22;15334;49.494;8.410;2023-07-31T02:03:42;19.20;99.90
28010;DHT22;15334;49.494;8.410;2023-07-31T02:06:10;19.10;99.90
28010;DHT22;15334;49.494;8.410;2023-07-31T02:08:38;19.10;99.90
28010;DHT22;15334;49.494;8.410;2023-07-31T02:11:06;19.10;99.90
28010;DHT22;15334;49.494;8.410;2023-07-31T02:13:34;19.10;99.90
28010;DHT22;15334;49.494;8.410;2023-07-31T02:16:04;19.10;99.90
28010;DHT22;15334;49.494;8.410;2023-07-31T02:18:32;19.00;99.90
28010;DHT22;15334;49.494;8.410;2023-07-31T02:21:00;19.00;99.90
28010;DHT22;15334;49.494;8.410;2023-07-31T02:23:28;19.00;99.90
28010;DHT22;15334;49.494;8.410;2023-07-31T02:25:56;19.00;99.90
28010;DHT22;15334;49.494;8.410;2023-07-31T02:28:24;19.00;99.90
28010;DHT22;15334;49.494;8.410;2023-07-31T02:30:52;19.00;99.90
28010;DHT22;15334;49.494;8.410;2023-07-31T02:33:21;18.90;99.90
28010;DHT22;15334;49.494;8.410;2023-07-31T02:35:49;18.90;99.90
28010;DHT22;15334;49.494;8.410;2023-07-31T02:38:17;18.90;99.90
28010;DHT22;15334;49.494;8.410;2023-07-31T02:40:45;18.90;99.90
28010;DHT22;15334;49.494;8.410;2023-07-31T02:43:14;18.90;99.90
28010;DHT22;15334;49.494;8.410;2023-07-31T02:45:42;18.90;99.90
28010;DHT22;15334;49.494;8.410;2023-07-31T02:48:10;18.90;99.90
28010;DHT22;15334;49.494;8.410;2023-07-31T02:50:40;18.80;99.90
28010;DHT22;15334;49.494;8.410;2023-07-31T02:53:08;18.80;99.90
28010;DHT22;15334;49.494;8.410;2023-07-31T02:55:36;18.70;99.90
28010;DHT22;15334;49.494;8.410;2023-07-31T02:58:05;18.70;99.90
28010;DHT22;15334;49.494;8.410;2023-07-31T03:00:33;18.70;99.90
28010;DHT22;15334;49.494;8.410;2023-07-31T03:03:01;18.60;99.90
28010;DHT22;15334;49.494;8.410;2023-07-31T03:05:30;18.60;99.90
28010;DHT22;15334;49.494;8.410;2023-07-31T03:07:59;18.50;99.90
28010;DHT22;15334;49.494;8.410;2023-07-31T03:10:27;18.50;99.90
28010;DHT22;15334;49.494;8.410;2023-07-31T03:12:55;18.50;99.90
28010;DHT22;15334;49.494;8.410;2023-07-31T03:15:23;18.50;99.90
28010;DHT22;15334;49.494;8.410;2023-07-31T03:17:51;18.40;99.90
28010;DHT22;15334;49.494;8.410;2023-07-31T03:20:20;18.40;99.90
28010;DHT22;15334;49.494;8.410;2023-07-31T03:22:48;18.40;99.90
28010;DHT22;15334;49.494;8.410;2023-07-31T03:25:17;18.40;99.90
28010;DHT22;15334;49.494;8.410;2023-07-31T03:27:45;18.40;99.90
28010;DHT22;15334;49.494;8.410;2023-07-31T03:30:13;18.40;99.90
28010;DHT22;15334;49.494;8.410;2023-07-31T03:32:47;18.30;99.90
28010;DHT22;15334;49.494;8.410;2023-07-31T03:35:20;18.20;99.90
28010;DHT22;15334;49.494;8.410;2023-07-31T03:37:48;18.20;99.90
28010;DHT22;15334;49.494;8.410;2023-07-31T03:40:18;18.20;99.90
28010;DHT22;15334;49.494;8.410;2023-07-31T03:42:46;18.30;99.90
28010;DHT22;15334;49.494;8.410;2023-07-31T03:45:14;18.30;99.90
28010;DHT22;15334;49.494;8.410;2023-07-31T03:47:42;18.30;99.90
28010;DHT22;15334;49.494;8.410;2023-07-31T03:50:10;18.30;99.90
28010;DHT22;15334;49.494;8.410;2023-07-31T03:52:38;18.30;99.90
28010;DHT22;15334;49.494;8.410;2023-07-31T03:55:06;18.30;99.90
28010;DHT22;15334;49.494;8.410;2023-07-31T03:57:36;18.30;99.90
28010;DHT22;15334;49.494;8.410;2023-07-31T04:00:05;18.20;99.90
28010;DHT22;15334;49.494;8.410;2023-07-31T04:02:33;18.20;99.90
28010;DHT22;15334;49.494;8.410;2023-07-31T04:05:01;18.20;99.90
28010;DHT22;15334;49.494;8.410;2023-07-31T04:07:29;18.20;99.90
28010;DHT22;15334;49.494;8.410;2023-07-31T04:09:57;18.20;99.90
28010;DHT22;15334;49.494;8.410;2023-07-31T04:12:26;18.20;99.90
28010;DHT22;15334;49.494;8.410;2023-07-31T04:14:55;18.20;99.90
28010;DHT22;15334;49.494;8.410;2023-07-31T04:17:23;18.20;99.90
28010;DHT22;15334;49.494;8.410;2023-07-31T04:19:51;18.20;99.90
28010;DHT22;15334;49.494;8.410;2023-07-31T04:22:19;18.20;99.90
28010;DHT22;15334;49.494;8.410;2023-07-31T04:24:47;18.20;99.90
28010;DHT22;15334;49.494;8.410;2023-07-31T04:27:15;18.20;99.90
28010;DHT22;15334;49.494;8.410;2023-07-31T04:29:43;18.20;99.90
28010;DHT22;15334;49.494;8.410;2023-07-31T04:32:14;18.20;99.90
28010;DHT22;15334;49.494;8.410;2023-07-31T04:34:43;18.20;99.90
28010;DHT22;15334;49.494;8.410;2023-07-31T04:37:11;18.20;99.90
28010;DHT22;15334;49.494;8.410;2023-07-31T04:39:39;18.20;99.90
28010;DHT22;15334;49.494;8.410;2023-07-31T04:42:07;18.20;99.90
28010;DHT22;15334;49.494;8.410;2023-07-31T04:44:35;18.20;99.90
28010;DHT22;15334;49.494;8.410;2023-07-31T04:47:04;18.20;99.90
28010;DHT22;15334;49.494;8.410;2023-07-31T04:49:33;18.20;99.90
28010;DHT22;15334;49.494;8.410;2023-07-31T04:52:01;18.20;99.90
28010;DHT22;15334;49.494;8.410;2023-07-31T04:54:29;18.30;99.90
28010;DHT22;15334;49.494;8.410;2023-07-31T04:56:57;18.30;99.90
28010;DHT22;15334;49.494;8.410;2023-07-31T04:59:25;18.40;99.90
28010;DHT22;15334;49.494;8.410;2023-07-31T05:01:53;18.40;99.90
28010;DHT22;15334;49.494;8.410;2023-07-31T05:04:21;18.40;99.90
28010;DHT22;15334;49.494;8.410;2023-07-31T05:06:51;18.50;99.90
28010;DHT22;15334;49.494;8.410;2023-07-31T05:09:19;18.50;99.90
28010;DHT22;15334;49.494;8.410;2023-07-31T05:11:47;18.50;99.90
28010;DHT22;15334;49.494;8.410;2023-07-31T05:14:15;18.50;99.90
28010;DHT22;15334;49.494;8.410;2023-07-31T05:16:43;18.60;99.90
28010;DHT22;15334;49.494;8.410;2023-07-31T05:19:11;18.60;99.90
28010;DHT22;15334;49.494;8.410;2023-07-31T05:21:39;18.50;99.90
28010;DHT22;15334;49.494;8.410;2023-07-31T05:24:09;18.50;99.90
28010;DHT22;15334;49.494;8.410;2023-07-31T05:26:37;18.50;99.90
28010;DHT22;15334;49.494;8.410;2023-07-31T05:29:06;18.50;99.90
28010;DHT22;15334;49.494;8.410;2023-07-31T05:31:34;18.50;99.90
28010;DHT22;15334;49.494;8.410;2023-07-31T05:34:02;18.50;99.90
28010;DHT22;15334;49.494;8.410;2023-07-31T05:36:30;18.60;99.90
28010;DHT22;15334;49.494;8.410;2023-07-31T05:38:58;18.50;99.90
28010;DHT22;15334;49.494;8.410;2023-07-31T05:41:27;18.50;99.90
28010;DHT22;15334;49.494;8.410;2023-07-31T05:43:55;18.50;99.90
28010;DHT22;15334;49.494;8.410;2023-07-31T05:46:23;18.40;99.90
28010;DHT22;15334;49.494;8.410;2023-07-31T05:48:51;18.60;99.90
28010;DHT22;15334;49.494;8.410;2023-07-31T05:51:19;18.60;99.90
28010;DHT22;15334;49.494;8.410;2023-07-31T05:53:47;18.70;99.90
28010;DHT22;15334;49.494;8.410;2023-07-31T05:56:15;18.70;99.90
28010;DHT22;15334;49.494;8.410;2023-07-31T05:58:44;18.90;99.90
28010;DHT22;15334;49.494;8.410;2023-07-31T06:01:12;19.00;99.90
28010;DHT22;15334;49.494;8.410;2023-07-31T06:03:41;19.00;99.90
28010;DHT22;15334;49.494;8.410;2023-07-31T06:06:09;19.10;99.90
28010;DHT22;15334;49.494;8.410;2023-07-31T06:08:37;19.10;99.90
28010;DHT22;15334;49.494;8.410;2023-07-31T06:11:06;19.10;99.90
28010;DHT22;15334;49.494;8.410;2023-07-31T06:13:36;19.10;99.90
28010;DHT22;15334;49.494;8.410;2023-07-31T06:16:05;19.00;99.90
28010;DHT22;15334;49.494;8.410;2023-07-31T06:18:33;18.90;99.90
28010;DHT22;15334;49.494;8.410;2023-07-31T06:21:01;19.00;99.90
28010;DHT22;15334;49.494;8.410;2023-07-31T06:23:29;19.00;99.90
28010;DHT22;15334;49.494;8.410;2023-07-31T06:25:57;19.10;99.90
28010;DHT22;15334;49.494;8.410;2023-07-31T06:28:27;19.10;99.90
28010;DHT22;15334;49.494;8.410;2023-07-31T06:30:57;19.10;99.90
28010;DHT22;15334;49.494;8.410;2023-07-31T06:33:26;19.20;99.90
28010;DHT22;15334;49.494;8.410;2023-07-31T06:35:54;19.20;99.90
28010;DHT22;15334;49.494;8.410;2023-07-31T06:38:25;19.20;99.90
28010;DHT22;15334;49.494;8.410;2023-07-31T06:40:56;19.20;99.90
28010;DHT22;15334;49.494;8.410;2023-07-31T06:43:24;19.20;99.90
28010;DHT22;15334;49.494;8.410;2023-07-31T06:45:55;19.30;99.90
28010;DHT22;15334;49.494;8.410;2023-07-31T06:48:23;19.40;99.90
28010;DHT22;15334;49.494;8.410;2023-07-31T06:50:52;19.30;99.90
28010;DHT22;15334;49.494;8.410;2023-07-31T06:53:20;19.30;99.90
28010;DHT22;15334;49.494;8.410;2023-07-31T06:55:48;19.30;99.90
28010;DHT22;15334;49.494;8.410;2023-07-31T06:58:18;19.20;99.90
28010;DHT22;15334;49.494;8.410;2023-07-31T07:00:46;19.20;99.90
28010;DHT22;15334;49.494;8.410;2023-07-31T07:03:17;19.20;99.90
28010;DHT22;15334;49.494;8.410;2023-07-31T07:05:45;19.20;99.90
28010;DHT22;15334;49.494;8.410;2023-07-31T07:08:15;19.20;99.90
28010;DHT22;15334;49.494;8.410;2023-07-31T07:10:43;19.20;99.90
28010;DHT22;15334;49.494;8.410;2023-07-31T07:13:11;19.20;99.90
28010;DHT22;15334;49.494;8.410;2023-07-31T07:15:40;19.20;99.90
28010;DHT22;15334;49.494;8.410;2023-07-31T07:18:08;19.30;99.90
28010;DHT22;15334;49.494;8.410;2023-07-31T07:20:37;19.40;99.90
28010;DHT22;15334;49.494;8.410;2023-07-31T07:23:05;19.50;99.90
28010;DHT22;15334;49.494;8.410;2023-07-31T07:25:38;19.60;99.90
28010;DHT22;15334;49.494;8.410;2023-07-31T07:28:06;19.70;99.90
28010;DHT22;15334;49.494;8.410;2023-07-31T07:30:34;19.80;99.90
28010;DHT22;15334;49.494;8.410;2023-07-31T07:33:02;19.80;99.90
28010;DHT22;15334;49.494;8.410;2023-07-31T07:35:33;19.80;99.90
28010;DHT22;15334;49.494;8.410;2023-07-31T07:38:02;19.90;99.90
28010;DHT22;15334;49.494;8.410;2023-07-31T07:40:30;19.90;99.90
28010;DHT22;15334;49.494;8.410;2023-07-31T07:42:59;19.90;99.90
28010;DHT22;15334;49.494;8.410;2023-07-31T07:45:27;19.90;99.90
28010;DHT22;15334;49.494;8.410;2023-07-31T07:47:55;20.10;99.90
28010;DHT22;15334;49.494;8.410;2023-07-31T07:50:25;20.20;99.90
28010;DHT22;15334;49.494;8.410;2023-07-31T07:52:53;20.20;99.90
28010;DHT22;15334;49.494;8.410;2023-07-31T07:55:21;20.40;99.90
28010;DHT22;15334;49.494;8.410;2023-07-31T07:57:49;20.50;99.90
28010;DHT22;15334;49.494;8.410;2023-07-31T08:00:18;20.60;99.90
28010;DHT22;15334;49.494;8.410;2023-07-31T08:02:46;20.70;99.90
28010;DHT22;15334;49.494;8.410;2023-07-31T08:05:15;20.70;99.90
28010;DHT22;15334;49.494;8.410;2023-07-31T08:07:44;20.70;99.90
28010;DHT22;15334;49.494;8.410;2023-07-31T08:10:12;20.80;99.90
28010;DHT22;15334;49.494;8.410;2023-07-31T08:12:40;20.80;99.90
28010;DHT22;15334;49.494;8.410;2023-07-31T08:15:08;20.80;99.90
28010;DHT22;15334;49.494;8.410;2023-07-31T08:17:38;20.90;99.90
28010;DHT22;15334;49.494;8.410;2023-07-31T08:20:07;20.90;99.90
28010;DHT22;15334;49.494;8.410;2023-07-31T08:22:36;21.00;99.90
28010;DHT22;15334;49.494;8.410;2023-07-31T08:25:05;21.00;99.90
28010;DHT22;15334;49.494;8.410;2023-07-31T08:27:33;21.10;99.90
28010;DHT22;15334;49.494;8.410;2023-07-31T08:30:01;21.20;99.90
28010;DHT22;15334;49.494;8.410;2023-07-31T08:32:29;21.20;99.90
28010;DHT22;15334;49.494;8.410;2023-07-31T08:34:59;21.20;99.90
28010;DHT22;15334;49.494;8.410;2023-07-31T08:37:27;21.40;99.90
28010;DHT22;15334;49.494;8.410;2023-07-31T08:39:55;21.40;99.90
28010;DHT22;15334;49.494;8.410;2023-07-31T08:42:23;21.50;99.90
28010;DHT22;15334;49.494;8.410;2023-07-31T08:44:52;21.60;99.90
28010;DHT22;15334;49.494;8.410;2023-07-31T08:47:22;21.60;99.90
28010;DHT22;15334;49.494;8.410;2023-07-31T08:49:51;21.60;99.90
28010;DHT22;15334;49.494;8.410;2023-07-31T08:52:21;21.60;99.90
28010;DHT22;15334;49.494;8.410;2023-07-31T08:54:50;21.70;99.90
28010;DHT22;15334;49.494;8.410;2023-07-31T08:57:18;21.70;99.90
28010;DHT22;15334;49.494;8.410;2023-07-31T08:59:46;21.60;99.90
28010;DHT22;15334;49.494;8.410;2023-07-31T09:02:15;21.50;99.90
28010;DHT22;15334;49.494;8.410;2023-07-31T09:04:44;21.40;99.90
28010;DHT22;15334;49.494;8.410;2023-07-31T09:07:12;21.40;99.90
28010;DHT22;15334;49.494;8.410;2023-07-31T09:09:43;21.50;99.90
28010;DHT22;15334;49.494;8.410;2023-07-31T09:12:12;21.60;99.90
28010;DHT22;15334;49.494;8.410;2023-07-31T09:14:42;21.60;99.90
28010;DHT22;15334;49.494;8.410;2023-07-31T09:17:11;21.70;99.90
28010;DHT22;15334;49.494;8.410;2023-07-31T09:19:39;21.90;99.90
28010;DHT22;15334;49.494;8.410;2023-07-31T09:22:07;22.00;99.90
28010;DHT22;15334;49.494;8.410;2023-07-31T09:24:35;22.10;99.90
28010;DHT22;15334;49.494;8.410;2023-07-31T09:27:05;22.20;99.90
28010;DHT22;15334;49.494;8.410;2023-07-31T09:29:33;22.30;99.90
28010;DHT22;15334;49.494;8.410;2023-07-31T09:32:02;22.50;99.90
28010;DHT22;15334;49.494;8.410;2023-07-31T09:34:37;22.60;99.90
28010;DHT22;15334;49.494;8.410;2023-07-31T09:37:05;22.70;99.90
28010;DHT22;15334;49.494;8.410;2023-07-31T09:39:46;23.00;99.90
28010;DHT22;15334;49.494;8.410;2023-07-31T09:42:24;23.10;99.90
28010;DHT22;15334;49.494;8.410;2023-07-31T09:44:53;23.00;99.90
28010;DHT22;15334;49.494;8.410;2023-07-31T09:47:24;23.00;99.90
28010;DHT22;15334;49.494;8.410;2023-07-31T09:49:53;22.90;99.90
28010;DHT22;15334;49.494;8.410;2023-07-31T09:52:21;22.80;99.90
28010;DHT22;15334;49.494;8.410;2023-07-31T09:54:49;22.80;99.90
28010;DHT22;15334;49.494;8.410;2023-07-31T09:57:21;22.80;99.90
28010;DHT22;15334;49.494;8.410;2023-07-31T09:59:52;22.70;99.90
28010;DHT22;15334;49.494;8.410;2023-07-31T10:02:22;22.60;99.90
28010;DHT22;15334;49.494;8.410;2023-07-31T10:04:50;22.60;99.90
28010;DHT22;15334;49.494;8.410;2023-07-31T10:07:20;22.60;99.90
28010;DHT22;15334;49.494;8.410;2023-07-31T10:09:51;22.60;99.90
28010;DHT22;15334;49.494;8.410;2023-07-31T10:34:01;23.10;99.90
28010;DHT22;15334;49.494;8.410;2023-07-31T10:36:30;23.20;99.90
28010;DHT22;15334;49.494;8.410;2023-07-31T10:38:58;23.20;99.90
28010;DHT22;15334;49.494;8.410;2023-07-31T10:41:29;23.20;99.90
28010;DHT22;15334;49.494;8.410;2023-07-31T10:43:58;23.20;99.90
28010;DHT22;15334;49.494;8.410;2023-07-31T10:46:27;23.10;99.90
28010;DHT22;15334;49.494;8.410;2023-07-31T10:49:01;23.10;99.90
28010;DHT22;15334;49.494;8.410;2023-07-31T10:51:33;23.10;99.90
28010;DHT22;15334;49.494;8.410;2023-07-31T10:54:12;23.10;99.90
28010;DHT22;15334;49.494;8.410;2023-07-31T10:56:44;23.20;99.90
28010;DHT22;15334;49.494;8.410;2023-07-31T10:59:13;23.30;99.90
28010;DHT22;15334;49.494;8.410;2023-07-31T11:01:50;23.40;99.90
28010;DHT22;15334;49.494;8.410;2023-07-31T11:04:24;23.40;99.90
28010;DHT22;15334;49.494;8.410;2023-07-31T11:06:56;23.40;99.90
28010;DHT22;15334;49.494;8.410;2023-07-31T11:09:28;23.30;99.90
28010;DHT22;15334;49.494;8.410;2023-07-31T11:11:56;23.30;99.90
28010;DHT22;15334;49.494;8.410;2023-07-31T11:14:24;23.40;99.90
28010;DHT22;15334;49.494;8.410;2023-07-31T11:16:52;23.50;99.90
28010;DHT22;15334;49.494;8.410;2023-07-31T11:19:25;23.60;99.90
28010;DHT22;15334;49.494;8.410;2023-07-31T11:21:53;23.70;99.90
28010;DHT22;15334;49.494;8.410;2023-07-31T11:24:21;23.80;99.90
28010;DHT22;15334;49.494;8.410;2023-07-31T11:26:50;23.90;99.90
28010;DHT22;15334;49.494;8.410;2023-07-31T11:29:19;23.80;99.90
28010;DHT22;15334;49.494;8.410;2023-07-31T11:31:47;23.80;99.90
28010;DHT22;15334;49.494;8.410;2023-07-31T11:34:16;23.60;99.90
28010;DHT22;15334;49.494;8.410;2023-07-31T11:36:54;23.50;99.90
28010;DHT22;15334;49.494;8.410;2023-07-31T11:39:22;23.50;99.90
28010;DHT22;15334;49.494;8.410;2023-07-31T11:41:50;23.40;99.90
28010;DHT22;15334;49.494;8.410;2023-07-31T11:44:18;23.40;99.90
28010;DHT22;15334;49.494;8.410;2023-07-31T11:46:56;23.30;99.90
28010;DHT22;15334;49.494;8.410;2023-07-31T11:49:25;23.30;99.90
28010;DHT22;15334;49.494;8.410;2023-07-31T11:51:55;23.30;99.90
28010;DHT22;15334;49.494;8.410;2023-07-31T11:54:23;23.30;99.90
28010;DHT22;15334;49.494;8.410;2023-07-31T11:56:51;23.20;99.90
28010;DHT22;15334;49.494;8.410;2023-07-31T11:59:20;23.20;99.90
28010;DHT22;15334;49.494;8.410;2023-07-31T12:01:48;23.10;99.90
28010;DHT22;15334;49.494;8.410;2023-07-31T12:04:20;23.00;99.90
28010;DHT22;15334;49.494;8.410;2023-07-31T12:06:49;22.90;99.90
28010;DHT22;15334;49.494;8.410;2023-07-31T12:09:18;23.00;99.90
28010;DHT22;15334;49.494;8.410;2023-07-31T12:11:47;23.00;99.90
28010;DHT22;15334;49.494;8.410;2023-07-31T12:14:24;22.90;99.90
28010;DHT22;15334;49.494;8.410;2023-07-31T12:16:56;23.00;99.90
28010;DHT22;15334;49.494;8.410;2023-07-31T12:19:25;23.00;99.90
28010;DHT22;15334;49.494;8.410;2023-07-31T12:21:54;23.00;99.90
28010;DHT22;15334;49.494;8.410;2023-07-31T12:24:24;23.10;99.90
28010;DHT22;15334;49.494;8.410;2023-07-31T12:26:53;23.10;99.90
28010;DHT22;15334;49.494;8.410;2023-07-31T12:29:21;23.20;99.90
28010;DHT22;15334;49.494;8.410;2023-07-31T12:31:50;23.30;99.90
28010;DHT22;15334;49.494;8.410;2023-07-31T12:34:19;23.30;99.90
28010;DHT22;15334;49.494;8.410;2023-07-31T12:36:48;23.30;99.90
28010;DHT22;15334;49.494;8.410;2023-07-31T12:39:16;23.40;99.90
28010;DHT22;15334;49.494;8.410;2023-07-31T12:41:46;23.40;99.90
28010;DHT22;15334;49.494;8.410;2023-07-31T12:44:14;23.50;99.90
28010;DHT22;15334;49.494;8.410;2023-07-31T12:46:42;23.50;99.90
28010;DHT22;15334;49.494;8.410;2023-07-31T12:49:10;23.60;99.90
28010;DHT22;15334;49.494;8.410;2023-07-31T12:51:38;23.70;99.90
28010;DHT22;15334;49.494;8.410;2023-07-31T12:54:06;23.80;99.90
28010;DHT22;15334;49.494;8.410;2023-07-31T12:56:34;23.80;99.90
28010;DHT22;15334;49.494;8.410;2023-07-31T12:59:03;23.80;99.90
28010;DHT22;15334;49.494;8.410;2023-07-31T13:01:32;23.90;99.90
28010;DHT22;15334;49.494;8.410;2023-07-31T13:04:00;24.00;99.90
28010;DHT22;15334;49.494;8.410;2023-07-31T13:06:28;24.00;99.90
28010;DHT22;15334;49.494;8.410;2023-07-31T13:08:56;24.00;99.90
28010;DHT22;15334;49.494;8.410;2023-07-31T13:11:24;24.00;99.90
28010;DHT22;15334;49.494;8.410;2023-07-31T13:13:52;24.00;99.90
28010;DHT22;15334;49.494;8.410;2023-07-31T13:16:21;24.00;99.90
28010;DHT22;15334;49.494;8.410;2023-07-31T13:18:49;24.00;99.90
28010;DHT22;15334;49.494;8.410;2023-07-31T13:21:18;24.00;99.90
28010;DHT22;15334;49.494;8.410;2023-07-31T13:23:48;24.00;99.90
28010;DHT22;15334;49.494;8.410;2023-07-31T13:26:16;24.00;99.90
28010;DHT22;15334;49.494;8.410;2023-07-31T13:28:44;24.00;99.90
28010;DHT22;15334;49.494;8.410;2023-07-31T13:31:13;23.90;99.90
28010;DHT22;15334;49.494;8.410;2023-07-31T13:33:42;23.90;99.90
28010;DHT22;15334;49.494;8.410;2023-07-31T13:36:10;23.90;99.90
28010;DHT22;15334;49.494;8.410;2023-07-31T13:38:40;23.80;99.90
28010;DHT22;15334;49.494;8.410;2023-07-31T13:41:09;23.70;99.90
28010;DHT22;15334;49.494;8.410;2023-07-31T13:43:36;23.70;99.90
28010;DHT22;15334;49.494;8.410;2023-07-31T13:46:05;23.70;99.90
28010;DHT22;15334;49.494;8.410;2023-07-31T13:48:34;23.60;99.90
28010;DHT22;15334;49.494;8.410;2023-07-31T13:51:04;23.60;99.90
28010;DHT22;15334;49.494;8.410;2023-07-31T13:53:32;23.60;99.90
28010;DHT22;15334;49.494;8.410;2023-07-31T13:56:00;23.60;99.90
28010;DHT22;15334;49.494;8.410;2023-07-31T13:58:28;23.50;99.90
28010;DHT22;15334;49.494;8.410;2023-07-31T14:00:56;23.60;99.90
28010;DHT22;15334;49.494;8.410;2023-07-31T14:03:24;23.60;99.90
28010;DHT22;15334;49.494;8.410;2023-07-31T14:05:52;23.70;99.90
28010;DHT22;15334;49.494;8.410;2023-07-31T14:08:23;23.70;99.90
28010;DHT22;15334;49.494;8.410;2023-07-31T14:10:51;23.60;99.90
28010;DHT22;15334;49.494;8.410;2023-07-31T14:13:19;23.60;99.90
28010;DHT22;15334;49.494;8.410;2023-07-31T14:15:48;23.50;99.90
28010;DHT22;15334;49.494;8.410;2023-07-31T14:18:16;23.50;99.90
28010;DHT22;15334;49.494;8.410;2023-07-31T14:20:44;23.50;99.90
28010;DHT22;15334;49.494;8.410;2023-07-31T14:23:12;23.50;99.90
28010;DHT22;15334;49.494;8.410;2023-07-31T14:25:42;23.50;99.90
28010;DHT22;15334;49.494;8.410;2023-07-31T14:28:10;23.60;99.90
28010;DHT22;15334;49.494;8.410;2023-07-31T14:30:38;23.60;99.90
28010;DHT22;15334;49.494;8.410;2023-07-31T14:33:06;23.60;99.90
28010;DHT22;15334;49.494;8.410;2023-07-31T14:35:35;23.70;99.90
28010;DHT22;15334;49.494;8.410;2023-07-31T14:38:21;23.70;99.90
28010;DHT22;15334;49.494;8.410;2023-07-31T14:40:50;23.70;99.90
28010;DHT22;15334;49.494;8.410;2023-07-31T14:43:18;23.70;99.90
28010;DHT22;15334;49.494;8.410;2023-07-31T14:45:46;23.80;99.90
28010;DHT22;15334;49.494;8.410;2023-07-31T14:48:15;23.70;99.90
28010;DHT22;15334;49.494;8.410;2023-07-31T14:50:43;23.70;99.90
28010;DHT22;15334;49.494;8.410;2023-07-31T14:53:11;23.70;99.90
28010;DHT22;15334;49.494;8.410;2023-07-31T14:55:39;23.80;99.90
28010;DHT22;15334;49.494;8.410;2023-07-31T14:58:08;23.80;99.90
28010;DHT22;15334;49.494;8.410;2023-07-31T15:00:38;23.80;99.90
28010;DHT22;15334;49.494;8.410;2023-07-31T15:03:06;23.80;99.90
28010;DHT22;15334;49.494;8.410;2023-07-31T15:05:34;23.80;99.90
28010;DHT22;15334;49.494;8.410;2023-07-31T15:08:03;23.90;99.90
28010;DHT22;15334;49.494;8.410;2023-07-31T15:10:31;23.90;99.90
28010;DHT22;15334;49.494;8.410;2023-07-31T15:12:59;24.00;99.90
28010;DHT22;15334;49.494;8.410;2023-07-31T15:15:29;24.10;99.90
28010;DHT22;15334;49.494;8.410;2023-07-31T15:17:57;24.10;99.90
28010;DHT22;15334;49.494;8.410;2023-07-31T15:20:25;24.10;99.90
28010;DHT22;15334;49.494;8.410;2023-07-31T15:22:54;24.10;99.90
28010;DHT22;15334;49.494;8.410;2023-07-31T15:25:22;24.00;99.90
28010;DHT22;15334;49.494;8.410;2023-07-31T15:27:50;24.00;99.90
28010;DHT22;15334;49.494;8.410;2023-07-31T15:30:18;24.00;99.90
28010;DHT22;15334;49.494;8.410;2023-07-31T15:32:47;24.00;99.90
28010;DHT22;15334;49.494;8.410;2023-07-31T15:35:17;24.00;99.90
28010;DHT22;15334;49.494;8.410;2023-07-31T15:37:48;23.90;99.90
28010;DHT22;15334;49.494;8.410;2023-07-31T15:40:16;23.80;99.90
28010;DHT22;15334;49.494;8.410;2023-07-31T15:42:44;23.70;99.90
28010;DHT22;15334;49.494;8.410;2023-07-31T15:45:12;23.70;99.90
28010;DHT22;15334;49.494;8.410;2023-07-31T15:47:40;23.60;99.90
28010;DHT22;15334;49.494;8.410;2023-07-31T15:50:10;23.60;99.90
28010;DHT22;15334;49.494;8.410;2023-07-31T15:52:38;23.50;99.90
28010;DHT22;15334;49.494;8.410;2023-07-31T15:55:07;23.60;99.90
28010;DHT22;15334;49.494;8.410;2023-07-31T15:57:35;23.50;99.90
28010;DHT22;15334;49.494;8.410;2023-07-31T16:00:03;23.50;99.90
28010;DHT22;15334;49.494;8.410;2023-07-31T16:02:32;23.50;99.90
28010;DHT22;15334;49.494;8.410;2023-07-31T16:05:00;23.60;99.90